Back to Top

Language: 

My Weather Underground Personal Weather Station Historical Data with Graphs...

Delerius Weather Station Historical Data
Daily Summary for February 23, 2017 Units:  Metric    English   Both
« Previous Day
Next Day »
Daily Weekly Monthly Yearly Custom
  High: Low: Average:
Temperature: 9.4 °C 3.8 °C 6.3 °C
Dew Point: 8.5 °C 1.8 °C 4.6 °C
Humidity: 97 % 78 % 89 %
Wind Speed: 53.1 km/h 0 km/h 22.5 km/h
Wind Gust: 74 km/h - -
Wind:- - WSW
Pressure: 1005.3 hPa 976.5 hPa -
Precipitation: 4.83 mm    
Historical Graphs
 
 
Tabular Data for February 23, 2017
Time Temperature Dew Point Pressure Wind Wind Speed Wind Gust Humidity Rainfall Rate (Hourly) solar Conditions
00:00 6.9 °C 5.8 °C 999.2 hPa SSW 1.6 km/h 1.6 km/h 93 % 1.27 mm 0 W/m2
00:05 6.8 °C 5.9 °C 999.2 hPa Calm   3.2 km/h 94 % 1.27 mm 0 W/m2
00:15 6.8 °C 5.9 °C 998.9 hPa SSW 1.6 km/h 1.6 km/h 94 % 1.78 mm 0 W/m2
00:20 6.8 °C 5.9 °C 998.9 hPa SSW 1.6 km/h 1.6 km/h 94 % 1.52 mm 0 W/m2
00:25 6.8 °C 5.9 °C 998.5 hPa SSW 1.6 km/h 3.2 km/h 94 % 1.52 mm 0 W/m2
00:30 6.8 °C 6.1 °C 998.5 hPa South 3.2 km/h 3.2 km/h 95 % 1.78 mm 0 W/m2
00:35 6.8 °C 6.1 °C 998.2 hPa South 4.8 km/h 4.8 km/h 95 % 1.52 mm 0 W/m2
00:45 6.8 °C 6.1 °C 998.2 hPa SSE 6.4 km/h 9.7 km/h 95 % 0 mm 0 W/m2
00:50 6.8 °C 6.1 °C 997.9 hPa SE 4.8 km/h 6.4 km/h 95 % 0 mm 0 W/m2
00:55 6.7 °C 6 °C 997.9 hPa SE 4.8 km/h 6.4 km/h 95 % 0 mm 0 W/m2
01:05 6.7 °C 6 °C 997.5 hPa SE 3.2 km/h 4.8 km/h 95 % 1.02 mm 0 W/m2
01:10 6.7 °C 6 °C 997.2 hPa SE 4.8 km/h 9.7 km/h 95 % 2.03 mm 0 W/m2
01:20 6.7 °C 5.9 °C 996.8 hPa SSE 6.4 km/h 9.7 km/h 95 % 3.3 mm 0 W/m2
01:25 6.7 °C 6.1 °C 996.8 hPa SE 6.4 km/h 9.7 km/h 96 % 2.79 mm 0 W/m2
01:30 6.7 °C 6.1 °C 996.5 hPa SE 6.4 km/h 8 km/h 96 % 1.78 mm 0 W/m2
01:35 6.6 °C 6 °C 996.5 hPa SE 6.4 km/h 11.3 km/h 96 % 1.52 mm 0 W/m2
01:40 6.6 °C 6 °C 996.2 hPa SSE 8 km/h 9.7 km/h 96 % 1.52 mm 0 W/m2
01:45 6.7 °C 6.1 °C 995.8 hPa ESE 8 km/h 9.7 km/h 96 % 1.27 mm 0 W/m2
01:55 6.7 °C 6.1 °C 995.5 hPa ESE 8 km/h 8 km/h 96 % 1.27 mm 0 W/m2
02:00 6.7 °C 6.1 °C 995.1 hPa SE 6.4 km/h 6.4 km/h 96 % 1.27 mm 0 W/m2
02:05 6.7 °C 6.1 °C 994.8 hPa SE 4.8 km/h 9.7 km/h 96 % 1.27 mm 0 W/m2
02:15 6.8 °C 6.2 °C 994.5 hPa East 4.8 km/h 6.4 km/h 96 % 0 mm 0 W/m2
02:20 6.9 °C 6.3 °C 994.5 hPa ESE 3.2 km/h 3.2 km/h 96 % 0 mm 0 W/m2
02:30 6.9 °C 6.3 °C 994.5 hPa ESE 3.2 km/h 6.4 km/h 96 % 0 mm 0 W/m2
02:35 7.1 °C 6.6 °C 994.1 hPa South 4.8 km/h 9.7 km/h 97 % 0 mm 0 W/m2
02:40 7.1 °C 6.7 °C 994.1 hPa SSW 4.8 km/h 4.8 km/h 97 % 0 mm 0 W/m2
02:45 7.2 °C 6.7 °C 993.5 hPa SSW 3.2 km/h 6.4 km/h 97 % 0 mm 0 W/m2
02:50 7.2 °C 6.8 °C 993.5 hPa SW 1.6 km/h 1.6 km/h 97 % 0 mm 0 W/m2
03:00 7.3 °C 6.9 °C 993.1 hPa SW 6.4 km/h 6.4 km/h 97 % 0 mm 0 W/m2
03:10 7.5 °C 7.1 °C 992.8 hPa SSW 8 km/h 9.7 km/h 97 % 0 mm 0 W/m2
03:15 7.6 °C 7.2 °C 992.4 hPa SSW 6.4 km/h 9.7 km/h 97 % 0 mm 0 W/m2
03:20 7.7 °C 7.2 °C 992.1 hPa SSW 4.8 km/h 4.8 km/h 97 % 0 mm 0 W/m2
03:25 7.7 °C 7.3 °C 992.1 hPa SSW 1.6 km/h 6.4 km/h 97 % 0 mm 0 W/m2
03:35 7.8 °C 7.4 °C 991.8 hPa SSW 3.2 km/h 6.4 km/h 97 % 0 mm 0 W/m2
03:40 7.9 °C 7.5 °C 991.8 hPa South 4.8 km/h 9.7 km/h 97 % 0 mm 0 W/m2
03:45 8.1 °C 7.7 °C 991.4 hPa South 4.8 km/h 9.7 km/h 97 % 0 mm 0 W/m2
03:50 8.2 °C 7.8 °C 991.1 hPa South 4.8 km/h 4.8 km/h 97 % 0 mm 0 W/m2
03:55 8.4 °C 7.9 °C 990.7 hPa SSW 4.8 km/h 6.4 km/h 97 % 0 mm 0 W/m2
04:05 8.6 °C 8.2 °C 990.4 hPa SSE 4.8 km/h 8 km/h 97 % 0 mm 0 W/m2
04:15 8.8 °C 8.4 °C 990.4 hPa SSE 8 km/h 12.9 km/h 97 % 0 mm 0 W/m2
04:20 8.9 °C 8.3 °C 990.1 hPa SW 9.7 km/h 16.1 km/h 96 % 0 mm 0 W/m2
04:25 9.1 °C 8.4 °C 989.7 hPa SW 11.3 km/h 16.1 km/h 96 % 0 mm 0 W/m2
04:30 9.1 °C 8.5 °C 989.4 hPa SSW 12.9 km/h 16.1 km/h 96 % 0 mm 0 W/m2
04:35 9.2 °C 8.4 °C 989.4 hPa SW 11.3 km/h 22.5 km/h 95 % 0 mm 0 W/m2
04:45 9.3 °C 8.4 °C 988.7 hPa SSW 12.9 km/h 17.7 km/h 94 % 0 mm 0 W/m2
04:50 9.3 °C 8.4 °C 988.7 hPa SW 11.3 km/h 24.1 km/h 94 % 0 mm 0 W/m2
04:55 9.3 °C 8.3 °C 988.4 hPa SSW 14.5 km/h 24.1 km/h 93 % 0 mm 0 W/m2
05:00 9.4 °C 8.3 °C 988.4 hPa SSW 16.1 km/h 17.7 km/h 93 % 0 mm 0 W/m2
05:05 9.4 °C 8.2 °C 988 hPa SSW 16.1 km/h 17.7 km/h 92 % 0 mm 0 W/m2
05:15 9.4 °C 8.2 °C 987.4 hPa SW 17.7 km/h 17.7 km/h 92 % 0 mm 0 W/m2
05:20 9.4 °C 8.2 °C 987.4 hPa SW 17.7 km/h 17.7 km/h 92 % 0 mm 0 W/m2
05:30 9.4 °C 8.2 °C 987 hPa WSW 16.1 km/h 16.1 km/h 92 % 0 mm 0 W/m2
05:35 9.4 °C 8 °C 986.7 hPa SW 19.3 km/h 19.3 km/h 91 % 0 mm 0 W/m2
05:40 9.4 °C 8.1 °C 986.3 hPa SSW 20.9 km/h 20.9 km/h 91 % 0 mm 0 W/m2
05:50 9.4 °C 7.9 °C 986 hPa SW 19.3 km/h 19.3 km/h 90 % 0 mm 0 W/m2
05:55 9.4 °C 7.9 °C 985.7 hPa SSW 19.3 km/h 19.3 km/h 90 % 0 mm 0 W/m2
06:00 9.4 °C 7.8 °C 985.3 hPa SSW 19.3 km/h 19.3 km/h 90 % 0 mm 0 W/m2
06:05 9.4 °C 7.8 °C 985 hPa SW 22.5 km/h 22.5 km/h 90 % 0 mm 0 W/m2
06:10 9.4 °C 7.8 °C 985 hPa SSW 25.7 km/h 25.7 km/h 90 % 0 mm 0 W/m2
06:15 9.4 °C 7.8 °C 984.6 hPa SW 25.7 km/h 25.7 km/h 90 % 0 mm 0 W/m2
06:25 9.3 °C 7.8 °C 984 hPa SSW 25.7 km/h 29 km/h 90 % 0 mm 0 W/m2
06:30 9.2 °C 7.8 °C 983.6 hPa SW 24.1 km/h 37 km/h 91 % 0 mm 0 W/m2
06:35 9.2 °C 7.8 °C 983.6 hPa South 24.1 km/h 37 km/h 91 % 0 mm 0 W/m2
06:45 9.1 °C 7.8 °C 983.3 hPa SW 24.1 km/h 30.6 km/h 92 % 0 mm 0 W/m2
06:50 9 °C 7.8 °C 983 hPa SSW 22.5 km/h 22.5 km/h 92 % 3.3 mm 0 W/m2
07:00 8.9 °C 7.8 °C 983 hPa SSW 22.5 km/h 22.5 km/h 93 % 2.29 mm 0 W/m2
07:05 8.9 °C 7.7 °C 982.6 hPa SW 27.4 km/h 27.4 km/h 92 % 2.54 mm 0 W/m2
07:10 8.9 °C 7.5 °C 982.3 hPa SW 29 km/h 29 km/h 91 % 2.03 mm 0 W/m2
07:15 9 °C 7.3 °C 982.3 hPa WSW 30.6 km/h 30.6 km/h 89 % 1.27 mm 0 W/m2
07:20 8.9 °C 7 °C 982.3 hPa SW 29 km/h 32.2 km/h 88 % 0 mm 5 W/m2
07:30 8.7 °C 6.5 °C 981.6 hPa SW 24.1 km/h 24.1 km/h 86 % 0 mm 9 W/m2
07:35 8.7 °C 6.3 °C 981.6 hPa West 27.4 km/h 27.4 km/h 85 % 0 mm 9 W/m2
07:40 8.7 °C 6.1 °C 981.3 hPa WSW 30.6 km/h 37 km/h 84 % 0 mm 11 W/m2
07:45 8.7 °C 5.8 °C 981.3 hPa SW 30.6 km/h 37 km/h 82 % 0 mm 9 W/m2
07:55 8.5 °C 4.9 °C 981.3 hPa WSW 38.6 km/h 38.6 km/h 78 % 0 mm 14 W/m2
08:05 8.2 °C 4.6 °C 980.9 hPa West 37 km/h 49.9 km/h 78 % 0 mm 19 W/m2
08:10 8 °C 4.6 °C 980.9 hPa WSW 35.4 km/h 35.4 km/h 79 % 0 mm 47 W/m2
08:15 7.9 °C 5.1 °C 980.9 hPa WSW 33.8 km/h 35.4 km/h 82 % 0 mm 176 W/m2
08:20 7.8 °C 5.1 °C 980.9 hPa WSW 33.8 km/h 33.8 km/h 83 % 0 mm 60 W/m2
08:25 7.6 °C 5.2 °C 980.9 hPa West 30.6 km/h 45.1 km/h 85 % 0 mm 53 W/m2
08:30 7.4 °C 5.2 °C 980.6 hPa WSW 24.1 km/h 38.6 km/h 86 % 0 mm 67 W/m2
08:40 7.2 °C 5 °C 980.6 hPa WSW 27.4 km/h 46.7 km/h 86 % 0 mm 74 W/m2
08:45 7.1 °C 4.9 °C 980.2 hPa WSW 27.4 km/h 46.7 km/h 86 % 0 mm 79 W/m2
08:50 7 °C 5 °C 980.2 hPa SSW 25.7 km/h 37 km/h 87 % 0 mm 76 W/m2
08:55 6.9 °C 4.9 °C 979.9 hPa WSW 25.7 km/h 37 km/h 87 % 0 mm 62 W/m2
09:00 6.8 °C 4.7 °C 979.6 hPa SW 29 km/h 33.8 km/h 86 % 0 mm 51 W/m2
09:10 6.6 °C 4.6 °C 979.2 hPa WSW 29 km/h 29 km/h 87 % 0 mm 93 W/m2
09:15 6.6 °C 4.7 °C 978.9 hPa SW 27.4 km/h 29 km/h 88 % 0 mm 128 W/m2
09:25 6.5 °C 4.8 °C 978.6 hPa SW 19.3 km/h 22.5 km/h 89 % 0 mm 79 W/m2
09:30 6.4 °C 4.8 °C 978.2 hPa SW 20.9 km/h 20.9 km/h 89 % 0 mm 46 W/m2
09:35 6.4 °C 4.7 °C 978.2 hPa SW 22.5 km/h 22.5 km/h 89 % 0 mm 49 W/m2
09:45 6.2 °C 4.3 °C 978.2 hPa SW 33.8 km/h 48.3 km/h 88 % 1.52 mm 26 W/m2
09:50 5.9 °C 4.1 °C 978.2 hPa WSW 38.6 km/h 38.6 km/h 88 % 1.52 mm 158 W/m2
09:55 5.7 °C 3.9 °C 977.9 hPa WSW 40.2 km/h 40.2 km/h 88 % 1.27 mm 114 W/m2
10:00 5.6 °C 3.9 °C 977.9 hPa WSW 37 km/h 37 km/h 89 % 0 mm 171 W/m2
10:05 5.5 °C 3.8 °C 977.5 hPa SW 30.6 km/h 37 km/h 89 % 0 mm 185 W/m2
10:10 5.5 °C 4 °C 977.5 hPa WSW 25.7 km/h 25.7 km/h 90 % 0 mm 199 W/m2
10:20 5.3 °C 3.8 °C 977.2 hPa West 35.4 km/h 35.4 km/h 90 % 1.02 mm 320 W/m2
10:25 5.4 °C 3.9 °C 976.9 hPa WNW 33.8 km/h 35.4 km/h 90 % 1.02 mm 269 W/m2
10:30 5.4 °C 4.1 °C 976.9 hPa WSW 32.2 km/h 32.2 km/h 91 % 1.02 mm 272 W/m2
10:35 5.4 °C 4.1 °C 976.5 hPa WSW 35.4 km/h 48.3 km/h 91 % 0 mm 325 W/m2
10:45 5.7 °C 4.4 °C 976.9 hPa West 35.4 km/h 46.7 km/h 91 % 0 mm 251 W/m2
10:50 5.8 °C 4.5 °C 976.5 hPa SW 37 km/h 38.6 km/h 91 % 0 mm 526 W/m2
11:00 6.2 °C 4.9 °C 976.9 hPa West 40.2 km/h 41.8 km/h 91 % 0 mm 487 W/m2
11:05 6.3 °C 4.9 °C 976.9 hPa WNW 40.2 km/h 41.8 km/h 91 % 0 mm 209 W/m2
11:10 6.3 °C 4.8 °C 976.9 hPa West 38.6 km/h 38.6 km/h 90 % 0 mm 163 W/m2
11:15 6.3 °C 4.9 °C 976.9 hPa West 35.4 km/h 38.6 km/h 91 % 0 mm 128 W/m2
11:25 6.4 °C 5.1 °C 977.2 hPa West 33.8 km/h 37 km/h 91 % 0 mm 105 W/m2
11:30 6.6 °C 5.3 °C 977.5 hPa West 32.2 km/h 32.2 km/h 92 % 0 mm 250 W/m2
11:35 6.9 °C 5.5 °C 977.9 hPa West 33.8 km/h 38.6 km/h 91 % 0 mm 309 W/m2
11:40 7.2 °C 5.7 °C 977.9 hPa West 38.6 km/h 38.6 km/h 90 % 0 mm 371 W/m2
11:45 7.4 °C 5.6 °C 978.2 hPa West 37 km/h 49.9 km/h 88 % 0 mm 274 W/m2
11:50 7.7 °C 5.7 °C 978.6 hPa WNW 43.5 km/h 48.3 km/h 87 % 0 mm 366 W/m2
12:00 8.3 °C 6.1 °C 979.2 hPa NW 40.2 km/h 40.2 km/h 86 % 0 mm 652 W/m2
12:05 8.5 °C 6.1 °C 979.2 hPa WNW 40.2 km/h 40.2 km/h 85 % 0 mm 605 W/m2
12:10 8.5 °C 5.8 °C 979.6 hPa WNW 38.6 km/h 38.6 km/h 83 % 0 mm 169 W/m2
12:15 8.3 °C 5.8 °C 979.9 hPa West 37 km/h 48.3 km/h 84 % 0 mm 137 W/m2
12:20 8 °C 5.6 °C 980.2 hPa WNW 38.6 km/h 41.8 km/h 85 % 0 mm 172 W/m2
12:30 6.8 °C 4.4 °C 980.9 hPa WNW 46.7 km/h 46.7 km/h 85 % 0 mm 121 W/m2
12:35 6.3 °C 4.2 °C 981.3 hPa NW 46.7 km/h 46.7 km/h 86 % 0 mm 148 W/m2
12:45 6 °C 3.8 °C 981.3 hPa WNW 49.9 km/h 57.9 km/h 86 % 0 mm 209 W/m2
12:50 6.1 °C 3.9 °C 981.6 hPa NW 46.7 km/h 46.7 km/h 86 % 0 mm 158 W/m2
12:55 6 °C 3.8 °C 981.9 hPa WNW 43.5 km/h 46.7 km/h 86 % 0 mm 373 W/m2
13:05 6.4 °C 3.7 °C 981.9 hPa West 45.1 km/h 45.1 km/h 83 % 0 mm 213 W/m2
13:10 6.4 °C 3.7 °C 982.3 hPa NW 45.1 km/h 45.1 km/h 83 % 0 mm 155 W/m2
13:15 6.3 °C 3.4 °C 982.3 hPa WNW 41.8 km/h 45.1 km/h 82 % 0 mm 137 W/m2
13:20 6.1 °C 3.3 °C 982.3 hPa West 41.8 km/h 41.8 km/h 82 % 0 mm 120 W/m2
13:25 6 °C 3.2 °C 982.6 hPa WSW 45.1 km/h 45.1 km/h 82 % 0 mm 118 W/m2
13:30 5.8 °C 3 °C 982.6 hPa West 48.3 km/h 53.1 km/h 82 % 0 mm 113 W/m2
13:40 5.7 °C 3.1 °C 983 hPa NW 45.1 km/h 51.5 km/h 83 % 0 mm 206 W/m2
13:45 5.8 °C 3.2 °C 983 hPa WNW 43.5 km/h 51.5 km/h 83 % 0 mm 371 W/m2
13:50 5.9 °C 3.1 °C 983 hPa WNW 48.3 km/h 62.8 km/h 82 % 0 mm 179 W/m2
13:55 5.8 °C 3.2 °C 983.3 hPa NW 53.1 km/h 62.8 km/h 83 % 0 mm 292 W/m2
14:00 5.9 °C 3.3 °C 983.6 hPa WNW 53.1 km/h 61.2 km/h 83 % 0 mm 223 W/m2
14:10 5.9 °C 3.2 °C 984.3 hPa WNW 45.1 km/h 45.1 km/h 83 % 0 mm 230 W/m2
14:15 6 °C 3.3 °C 984.6 hPa NW 43.5 km/h 45.1 km/h 83 % 0 mm 264 W/m2
14:25 6.3 °C 3.6 °C 985.3 hPa WNW 41.8 km/h 43.5 km/h 83 % 0 mm 146 W/m2
14:30 6.1 °C 3.6 °C 985.7 hPa WNW 38.6 km/h 45.1 km/h 84 % 0 mm 104 W/m2
14:35 5.8 °C 3.7 °C 986.3 hPa WNW 37 km/h 45.1 km/h 86 % 0 mm 120 W/m2
14:45 5.6 °C 3.7 °C 987 hPa NNW 35.4 km/h 35.4 km/h 88 % 0 mm 160 W/m2
14:50 5.6 °C 3.7 °C 987 hPa WNW 32.2 km/h 35.4 km/h 88 % 0 mm 225 W/m2
14:55 5.6 °C 3.8 °C 987.4 hPa NW 33.8 km/h 33.8 km/h 88 % 0 mm 190 W/m2
15:05 5.7 °C 3.7 °C 987.7 hPa WNW 35.4 km/h 35.4 km/h 87 % 0 mm 165 W/m2
15:15 5.7 °C 3.5 °C 988.7 hPa WNW 33.8 km/h 41.8 km/h 86 % 0 mm 156 W/m2
15:20 5.7 °C 3.6 °C 989.1 hPa NW 33.8 km/h 33.8 km/h 86 % 0 mm 155 W/m2
15:25 5.8 °C 3.6 °C 989.4 hPa WNW 33.8 km/h 33.8 km/h 86 % 0 mm 206 W/m2
15:30 5.9 °C 3.7 °C 989.7 hPa WNW 32.2 km/h 41.8 km/h 86 % 0 mm 195 W/m2
15:40 5.9 °C 3.4 °C 990.7 hPa West 35.4 km/h 74 km/h 84 % 0 mm 162 W/m2
15:45 5.9 °C 3.3 °C 991.1 hPa NNW 35.4 km/h 74 km/h 83 % 0 mm 93 W/m2
15:50 5.9 °C 3.1 °C 991.1 hPa NNW 33.8 km/h 74 km/h 82 % 0 mm 62 W/m2
15:55 5.8 °C 3 °C 991.4 hPa NNW 30.6 km/h 74 km/h 82 % 0 mm 121 W/m2
16:00 5.8 °C 3 °C 991.8 hPa NW 30.6 km/h 30.6 km/h 82 % 0 mm 88 W/m2
16:10 5.8 °C 2.8 °C 992.4 hPa WNW 32.2 km/h 74 km/h 81 % 0 mm 60 W/m2
16:15 5.7 °C 2.9 °C 992.8 hPa NNW 30.6 km/h 74 km/h 82 % 0 mm 58 W/m2
16:20 5.7 °C 2.8 °C 993.1 hPa WNW 29 km/h 74 km/h 82 % 0 mm 62 W/m2
16:25 5.6 °C 2.8 °C 993.1 hPa NW 29 km/h 74 km/h 82 % 0 mm 60 W/m2
16:35 5.7 °C 2.7 °C 994.1 hPa NW 30.6 km/h 74 km/h 81 % 0 mm 35 W/m2
16:45 5.7 °C 2.7 °C 994.5 hPa WNW 27.4 km/h 74 km/h 81 % 0 mm 28 W/m2
16:50 5.6 °C 2.6 °C 994.8 hPa NW 30.6 km/h 30.6 km/h 81 % 0 mm 19 W/m2
16:55 5.6 °C 2.6 °C 995.1 hPa WNW 29 km/h 74 km/h 81 % 0 mm 18 W/m2
17:00 5.6 °C 2.6 °C 995.1 hPa WNW 29 km/h 74 km/h 81 % 0 mm 14 W/m2
17:05 5.6 °C 2.6 °C 995.5 hPa NW 27.4 km/h 74 km/h 81 % 0 mm 11 W/m2
17:10 5.5 °C 2.5 °C 995.5 hPa NW 30.6 km/h 30.6 km/h 81 % 0 mm 9 W/m2
17:20 5.4 °C 2.6 °C 996.2 hPa WNW 24.1 km/h 24.1 km/h 82 % 0 mm 5 W/m2
17:25 5.3 °C 2.7 °C 996.5 hPa WNW 24.1 km/h 74 km/h 83 % 0 mm 5 W/m2
17:30 5.3 °C 2.7 °C 996.5 hPa NW 24.1 km/h 24.1 km/h 83 % 0 mm 0 W/m2
17:35 5.3 °C 2.8 °C 996.8 hPa WNW 24.1 km/h 74 km/h 84 % 0 mm 0 W/m2
17:40 5.2 °C 2.7 °C 996.8 hPa WNW 24.1 km/h 74 km/h 84 % 0 mm 0 W/m2
17:50 5 °C 2.7 °C 997.5 hPa WNW 24.1 km/h 24.1 km/h 85 % 0 mm 0 W/m2
17:55 4.9 °C 2.8 °C 997.5 hPa West 22.5 km/h 74 km/h 86 % 0 mm 0 W/m2
18:05 4.9 °C 2.9 °C 998.2 hPa WNW 22.5 km/h 74 km/h 87 % 0 mm 0 W/m2
18:10 4.8 °C 2.8 °C 998.2 hPa WNW 19.3 km/h 19.3 km/h 87 % 0 mm 0 W/m2
18:15 4.8 °C 2.8 °C 998.5 hPa WNW 19.3 km/h 30.6 km/h 87 % 0 mm 0 W/m2
18:25 4.6 °C 2.6 °C 998.5 hPa WNW 20.9 km/h 74 km/h 87 % 0 mm 0 W/m2
18:30 4.6 °C 2.6 °C 998.9 hPa WNW 17.7 km/h 74 km/h 87 % 0 mm 0 W/m2
18:35 4.4 °C 2.4 °C 998.9 hPa West 17.7 km/h 74 km/h 87 % 0 mm 0 W/m2
18:40 4.4 °C 2.4 °C 999.2 hPa NW 16.1 km/h 16.1 km/h 87 % 0 mm 0 W/m2
18:45 4.3 °C 2.3 °C 999.2 hPa NW 17.7 km/h 17.7 km/h 87 % 0 mm 0 W/m2
18:50 4.3 °C 2.3 °C 999.2 hPa WNW 17.7 km/h 17.7 km/h 87 % 0 mm 0 W/m2
19:00 4.2 °C 2.2 °C 999.5 hPa WNW 14.5 km/h 14.5 km/h 87 % 0 mm 0 W/m2
19:05 4.2 °C 2.2 °C 999.5 hPa WNW 14.5 km/h 20.9 km/h 87 % 0 mm 0 W/m2
19:10 4.1 °C 2.3 °C 999.9 hPa WNW 12.9 km/h 74 km/h 88 % 0 mm 0 W/m2
19:15 4.1 °C 2.2 °C 999.9 hPa NW 14.5 km/h 74 km/h 88 % 0 mm 0 W/m2
19:25 4 °C 2.2 °C 1000.2 hPa NW 16.1 km/h 74 km/h 88 % 0 mm 0 W/m2
19:30 3.9 °C 2.1 °C 1000.2 hPa WNW 14.5 km/h 74 km/h 88 % 0 mm 0 W/m2
19:40 3.9 °C 2.1 °C 1000.6 hPa WNW 16.1 km/h 74 km/h 88 % 0 mm 0 W/m2
19:45 4 °C 2.2 °C 1000.9 hPa NW 16.1 km/h 74 km/h 88 % 0 mm 0 W/m2
19:50 4 °C 2.2 °C 1001.2 hPa WNW 14.5 km/h 14.5 km/h 88 % 0 mm 0 W/m2
19:55 4.1 °C 2.3 °C 1001.2 hPa West 12.9 km/h 74 km/h 88 % 0 mm 0 W/m2
20:05 4.2 °C 2.4 °C 1001.2 hPa WNW 14.5 km/h 74 km/h 88 % 0 mm 0 W/m2
20:10 4.2 °C 2.4 °C 1001.6 hPa WNW 16.1 km/h 74 km/h 88 % 0 mm 0 W/m2
20:15 4.3 °C 2.4 °C 1001.6 hPa WNW 14.5 km/h 74 km/h 88 % 0 mm 0 W/m2
20:20 4.3 °C 2.4 °C 1001.9 hPa WNW 14.5 km/h 14.5 km/h 88 % 0 mm 0 W/m2
20:25 4.3 °C 2.5 °C 1001.9 hPa WNW 14.5 km/h 16.1 km/h 88 % 0 mm 0 W/m2
20:30 4.3 °C 2.3 °C 1002.3 hPa West 14.5 km/h 14.5 km/h 87 % 0 mm 0 W/m2
20:40 4.3 °C 2.3 °C 1002.6 hPa WNW 14.5 km/h 14.5 km/h 87 % 0 mm 0 W/m2
20:45 4.3 °C 2.3 °C 1002.6 hPa West 12.9 km/h 74 km/h 87 % 0 mm 0 W/m2
20:50 4.3 °C 2.3 °C 1002.6 hPa NW 11.3 km/h 74 km/h 87 % 0 mm 0 W/m2
21:00 4.3 °C 2.3 °C 1002.9 hPa West 9.7 km/h 9.7 km/h 87 % 0 mm 0 W/m2
21:05 4.3 °C 2.3 °C 1002.9 hPa West 8 km/h 74 km/h 87 % 0 mm 0 W/m2
21:15 4.3 °C 2.3 °C 1002.9 hPa WNW 8 km/h 74 km/h 87 % 0 mm 0 W/m2
21:20 4.4 °C 2.4 °C 1002.9 hPa WNW 12.9 km/h 12.9 km/h 87 % 0 mm 0 W/m2
21:25 4.4 °C 2.4 °C 1003.3 hPa WNW 11.3 km/h 74 km/h 87 % 0 mm 0 W/m2
21:30 4.4 °C 2.3 °C 1003.3 hPa WSW 12.9 km/h 74 km/h 86 % 0 mm 0 W/m2
21:35 4.4 °C 2.3 °C 1003.3 hPa WNW 12.9 km/h 74 km/h 86 % 0 mm 0 W/m2
21:45 4.5 °C 2.3 °C 1003.6 hPa WNW 12.9 km/h 20.9 km/h 86 % 0 mm 0 W/m2
21:50 4.5 °C 2.2 °C 1003.6 hPa WNW 12.9 km/h 12.9 km/h 85 % 0 mm 0 W/m2
21:55 4.5 °C 2.2 °C 1003.9 hPa West 12.9 km/h 74 km/h 85 % 0 mm 0 W/m2
22:00 4.4 °C 2.3 °C 1003.9 hPa WNW 11.3 km/h 74 km/h 86 % 0 mm 0 W/m2
22:05 4.4 °C 2.3 °C 1003.9 hPa WNW 11.3 km/h 74 km/h 86 % 0 mm 0 W/m2
22:10 4.3 °C 2.2 °C 1004.3 hPa West 11.3 km/h 74 km/h 86 % 0 mm 0 W/m2
22:20 4.2 °C 1.9 °C 1004.3 hPa West 16.1 km/h 74 km/h 85 % 0 mm 0 W/m2
22:25 4.1 °C 1.8 °C 1004.3 hPa WNW 16.1 km/h 74 km/h 85 % 0 mm 0 W/m2
22:35 4 °C 1.9 °C 1004.3 hPa NW 16.1 km/h 74 km/h 86 % 0 mm 0 W/m2
22:40 3.9 °C 1.8 °C 1004.3 hPa West 17.7 km/h 74 km/h 86 % 0 mm 0 W/m2
22:45 3.8 °C 1.9 °C 1004.6 hPa West 17.7 km/h 74 km/h 87 % 0 mm 0 W/m2
22:55 3.8 °C 1.9 °C 1004.6 hPa WNW 17.7 km/h 74 km/h 87 % 0 mm 0 W/m2
23:00 3.8 °C 1.9 °C 1004.6 hPa WNW 19.3 km/h 19.3 km/h 87 % 0 mm 0 W/m2
23:05 3.8 °C 1.9 °C 1004.6 hPa West 19.3 km/h 74 km/h 87 % 0 mm 0 W/m2
23:10 3.8 °C 2 °C 1004.3 hPa West 17.7 km/h 17.7 km/h 88 % 0 mm 0 W/m2
23:15 3.8 °C 2 °C 1004.6 hPa NW 16.1 km/h 24.1 km/h 88 % 0 mm 0 W/m2
23:25 3.8 °C 2 °C 1005 hPa WNW 17.7 km/h 74 km/h 88 % 0 mm 0 W/m2
23:30 3.9 °C 2.1 °C 1005 hPa West 17.7 km/h 17.7 km/h 88 % 0 mm 0 W/m2
23:35 3.9 °C 2.1 °C 1005 hPa West 19.3 km/h 29 km/h 88 % 0 mm 0 W/m2
23:40 4 °C 2.2 °C 1005 hPa NW 20.9 km/h 20.9 km/h 88 % 0 mm 0 W/m2
23:45 4.1 °C 2.2 °C 1005.3 hPa NW 17.7 km/h 74 km/h 88 % 0 mm 0 W/m2
23:50 4.1 °C 2.2 °C 1005.3 hPa West 16.1 km/h 16.1 km/h 88 % 0 mm 0 W/m2
Delerius-Weather
Compliments of Weather Underground - 2 mb

Data updates at regular intervals.